Time;durP1;ratioP1;P1;durP2;ratioP2;P2;SDS_P1;SDS_P2;PMS_P1;PMS_P2;Temp;Humidity;BMP_temperature;BMP_pressure;BME280_temperature;BME280_humidity;BME280_pressure;Samples;Min_cycle;Max_cycle;Signal;HPM_P1;HPM_P2
2023/08/25 00:01:25;;;;;;;;;;;;;;;25.51;59.64;99419.94;5074875;28;20019;-77
2023/08/25 00:03:50;;;;;;;;;;;;;;;25.50;60.69;99412.94;5074905;28;19960;-78
2023/08/25 00:06:16;;;;;;;;;;;;;;;25.52;60.18;99413.47;5074690;28;19931;-77
2023/08/25 00:08:41;;;;;;;;;;;;;;;25.52;60.15;99426.97;5074684;28;20450;-78
2023/08/25 00:11:06;;;;;;;;;;;;;;;25.49;61.29;99430.25;5056763;28;20355;-78
2023/08/25 00:13:32;;;;;;;;;;;;;;;25.43;61.54;99425.94;5074513;28;19913;-78
2023/08/25 00:15:58;;;;;;;;;;;;;;;25.39;60.56;99435.69;5056632;28;19917;-77
2023/08/25 00:18:23;;;;;;;;;;;;;;;25.38;61.02;99429.47;5074699;28;19913;-77
2023/08/25 00:20:49;;;;;;;;;;;;;;;25.35;61.33;99432.75;5074620;28;19912;-77
2023/08/25 00:23:14;;;;;;;;;;;;;;;25.34;61.45;99436.53;5074442;28;20369;-77
2023/08/25 00:25:39;;;;;;;;;;;;;;;25.30;59.99;99438.97;5056528;28;19913;-77
2023/08/25 00:28:04;;;;;;;;;;;;;;;25.30;60.82;99433.56;5056442;28;19908;-76
2023/08/25 00:30:30;;;;;;;;;;;;;;;25.28;60.61;99422.22;5074366;28;19912;-77
2023/08/25 00:32:55;;;;;;;;;;;;;;;25.26;60.97;99426.28;5074498;28;20476;-77
2023/08/25 00:35:20;;;;;;;;;;;;;;;25.23;60.82;99430.34;5074383;28;19916;-77
2023/08/25 00:37:46;;;;;;;;;;;;;;;25.24;61.60;99434.66;5074572;28;19916;-77
2023/08/25 00:40:11;;;;;;;;;;;;;;;25.23;61.00;99437.63;5056234;28;19917;-77
2023/08/25 00:42:36;;;;;;;;;;;;;;;25.20;60.15;99430.88;5056310;28;20294;-76
2023/08/25 00:45:01;;;;;;;;;;;;;;;25.17;60.92;99436.03;5074218;28;19912;-76
2023/08/25 00:47:27;;;;;;;;;;;;;;;25.14;61.36;99439.28;5074120;28;19988;-76
2023/08/25 00:49:53;;;;;;;;;;;;;;;25.14;62.04;99433.88;5076488;28;19931;-76
2023/08/25 00:52:19;;;;;;;;;;;;;;;25.12;62.40;99436.06;5079580;28;19912;-77
2023/08/25 00:54:46;;;;;;;;;;;;;;;25.03;61.40;99427.72;5074951;28;19962;-76
2023/08/25 00:57:11;;;;;;;;;;;;;;;24.99;60.87;99432.06;5073871;28;20033;-77
2023/08/25 00:59:37;;;;;;;;;;;;;;;24.97;62.48;99428.78;5073740;28;20400;-77
2023/08/25 01:02:03;;;;;;;;;;;;;;;24.91;61.54;99422.59;5073902;28;19991;-76
2023/08/25 01:04:28;;;;;;;;;;;;;;;24.88;61.57;99416.94;5073913;28;19995;-76
2023/08/25 01:06:54;;;;;;;;;;;;;;;24.89;61.31;99418.53;5055742;28;20005;-76
2023/08/25 01:09:20;;;;;;;;;;;;;;;24.83;61.01;99417.75;5073373;28;19912;-77
2023/08/25 01:12:04;;;;;;;;;;;;;;;24.84;60.81;99419.38;5073727;28;20496;-78
2023/08/25 01:14:40;;;;;;;;;;;;;;;24.89;60.36;99427.47;5073499;28;19943;-77
2023/08/25 01:17:09;;;;;;;;;;;;;;;24.81;61.01;99430.72;5073450;28;19927;-76
2023/08/25 01:19:34;;;;;;;;;;;;;;;24.76;60.90;99425.34;5055505;28;19955;-77
2023/08/25 01:22:02;;;;;;;;;;;;;;;24.77;61.64;99426.13;5073359;28;19959;-77
2023/08/25 01:24:29;;;;;;;;;;;;;;;24.70;61.81;99427.22;5073504;28;20297;-77
2023/08/25 01:26:54;;;;;;;;;;;;;;;24.66;59.61;99423.47;5055238;28;19920;-77
2023/08/25 01:29:20;;;;;;;;;;;;;;;24.63;61.08;99432.09;5073250;28;19913;-78
2023/08/25 01:31:45;;;;;;;;;;;;;;;24.65;61.90;99421.03;5072999;28;19922;-77
2023/08/25 01:34:13;;;;;;;;;;;;;;;24.62;62.43;99422.41;5072872;28;19973;-78
2023/08/25 01:36:49;;;;;;;;;;;;;;;24.59;61.79;99431.03;5073263;28;20453;-77
2023/08/25 01:39:15;;;;;;;;;;;;;;;24.61;61.59;99434.28;5055141;28;19991;-77
2023/08/25 01:41:54;;;;;;;;;;;;;;;24.61;60.78;99438.88;5072982;28;19916;-78
2023/08/25 01:44:20;;;;;;;;;;;;;;;24.60;61.57;99440.75;5072991;28;20389;-77
2023/08/25 01:46:48;;;;;;;;;;;;;;;24.54;61.84;99443.72;5072612;28;19958;-77
2023/08/25 01:49:16;;;;;;;;;;;;;;;24.51;61.73;99445.06;5072617;28;19995;-77
2023/08/25 01:51:42;;;;;;;;;;;;;;;24.49;61.28;99446.41;5054798;28;20350;-77
2023/08/25 01:54:07;;;;;;;;;;;;;;;24.46;62.38;99450.47;5054770;28;20008;-77
2023/08/25 01:56:33;;;;;;;;;;;;;;;24.45;61.87;99454.25;5072823;28;19916;-76
2023/08/25 01:58:58;;;;;;;;;;;;;;;24.41;61.18;99445.06;5054734;28;19912;-76
2023/08/25 02:01:25;;;;;;;;;;;;;;;24.32;62.88;99438.59;5072496;28;19920;-77
2023/08/25 02:03:52;;;;;;;;;;;;;;;24.33;61.88;99437.50;5072591;28;20377;-78
2023/08/25 02:06:17;;;;;;;;;;;;;;;24.40;61.92;99438.03;5072732;28;19973;-78
2023/08/25 02:08:43;;;;;;;;;;;;;;;24.45;61.04;99440.75;5072708;28;20366;-78
2023/08/25 02:11:08;;;;;;;;;;;;;;;24.50;61.00;99443.44;5072515;28;19913;-78
2023/08/25 02:13:34;;;;;;;;;;;;;;;24.49;61.56;99449.09;5072284;28;19912;-78
2023/08/25 02:15:59;;;;;;;;;;;;;;;24.50;61.74;99453.44;5072198;28;19969;-77
2023/08/25 02:18:24;;;;;;;;;;;;;;;24.51;60.94;99441.53;5072403;28;19973;-78
2023/08/25 02:20:50;;;;;;;;;;;;;;;24.51;61.21;99446.94;5071778;28;20389;-78
2023/08/25 02:23:15;;;;;;;;;;;;;;;24.54;60.45;99443.72;5072199;28;20430;-78
2023/08/25 02:25:41;;;;;;;;;;;;;;;24.48;60.80;99440.19;5072427;28;19951;-77
2023/08/25 02:28:06;;;;;;;;;;;;;;;24.41;61.85;99442.38;5072421;28;20404;-78
2023/08/25 02:30:31;;;;;;;;;;;;;;;24.35;60.54;99452.34;5072498;28;19912;-78
2023/08/25 02:32:57;;;;;;;;;;;;;;;24.33;62.08;99446.41;5072285;28;19912;-77
2023/08/25 02:35:22;;;;;;;;;;;;;;;24.33;60.97;99448.31;5072310;28;19970;-78
2023/08/25 02:38:06;;;;;;;;;;;;;;;24.28;61.70;99451.81;5072370;28;19920;-78
2023/08/25 02:40:32;;;;;;;;;;;;;;;24.23;61.89;99454.47;5072049;28;19912;-77
2023/08/25 02:43:02;;;;;;;;;;;;;;;24.20;61.27;99465.00;5054060;28;19919;-76
2023/08/25 02:45:27;;;;;;;;;;;;;;;24.19;61.87;99464.19;5072058;28;19919;-78
2023/08/25 02:47:53;;;;;;;;;;;;;;;24.18;61.55;99473.38;5071847;28;19999;-77
2023/08/25 02:50:19;;;;;;;;;;;;;;;24.18;61.70;99469.84;5071762;28;19913;-76
2023/08/25 02:52:44;;;;;;;;;;;;;;;24.16;62.01;99474.72;5071929;28;19951;-77
2023/08/25 02:55:11;;;;;;;;;;;;;;;24.16;61.03;99477.41;5071978;28;19912;-77
2023/08/25 02:57:36;;;;;;;;;;;;;;;24.10;60.91;99484.69;5071830;28;20362;-77
2023/08/25 03:00:04;;;;;;;;;;;;;;;24.06;60.68;99480.91;5071520;28;19959;-76
2023/08/25 03:02:29;;;;;;;;;;;;;;;23.94;61.57;99478.47;5071840;28;19919;-76
2023/08/25 03:04:54;;;;;;;;;;;;;;;23.90;62.00;99471.97;5071844;28;19912;-77
2023/08/25 03:07:20;;;;;;;;;;;;;;;23.93;61.84;99476.84;5053845;28;20017;-77
2023/08/25 03:09:45;;;;;;;;;;;;;;;23.94;60.80;99473.06;5071903;28;19919;-78
2023/08/25 03:12:10;;;;;;;;;;;;;;;23.86;62.05;99492.47;5071667;28;19913;-75
2023/08/25 03:14:35;;;;;;;;;;;;;;;23.80;62.64;99498.13;5071699;28;19917;-78
2023/08/25 03:17:01;;;;;;;;;;;;;;;23.74;61.70;99491.88;5071591;28;19989;-77
2023/08/25 03:19:26;;;;;;;;;;;;;;;23.70;61.81;99488.09;5071649;28;20400;-76
2023/08/25 03:21:51;;;;;;;;;;;;;;;23.70;61.79;99482.69;5071829;28;19956;-78
2023/08/25 03:24:16;;;;;;;;;;;;;;;23.69;60.56;99475.69;5071705;28;19916;-77
2023/08/25 03:26:42;;;;;;;;;;;;;;;23.70;61.33;99490.78;5071490;28;19912;-77
2023/08/25 03:29:07;;;;;;;;;;;;;;;23.67;62.31;99492.13;5071623;28;19966;-76
2023/08/25 03:31:32;;;;;;;;;;;;;;;23.65;61.10;99496.16;5072601;28;20401;-79
2023/08/25 03:33:58;;;;;;;;;;;;;;;23.70;62.01;99504.25;5075503;28;19913;-77
2023/08/25 03:36:23;;;;;;;;;;;;;;;23.68;60.96;99506.41;5075329;28;19916;-76
2023/08/25 03:38:48;;;;;;;;;;;;;;;23.68;62.13;99495.63;5075323;28;19912;-76
2023/08/25 03:41:13;;;;;;;;;;;;;;;23.67;61.76;99502.91;5075394;28;19912;-76
2023/08/25 03:43:39;;;;;;;;;;;;;;;23.57;62.07;99502.06;5075204;28;19955;-76
2023/08/25 03:46:04;;;;;;;;;;;;;;;23.53;62.38;99495.53;5057374;28;19909;-78
2023/08/25 03:48:29;;;;;;;;;;;;;;;23.44;61.84;99495.25;5075491;28;19999;-78
2023/08/25 03:50:54;;;;;;;;;;;;;;;23.49;62.26;99495.25;5075143;28;19913;-77
2023/08/25 03:53:20;;;;;;;;;;;;;;;23.55;61.78;99490.72;5075369;28;19912;-77
2023/08/25 03:55:45;;;;;;;;;;;;;;;23.54;62.28;99495.28;5075140;28;19920;-77
2023/08/25 03:58:12;;;;;;;;;;;;;;;23.54;61.25;99492.59;5075125;28;19912;-77
2023/08/25 04:00:37;;;;;;;;;;;;;;;23.51;61.56;99497.69;5076962;28;19921;-77
2023/08/25 04:03:06;;;;;;;;;;;;;;;23.55;61.56;99501.50;5079719;28;20465;-78
2023/08/25 04:05:34;;;;;;;;;;;;;;;23.63;61.46;99511.78;5076220;28;19909;-78
2023/08/25 04:08:02;;;;;;;;;;;;;;;23.66;60.49;99511.25;5074267;28;21646;-78
2023/08/25 04:10:27;;;;;;;;;;;;;;;23.64;60.47;99513.41;5074974;28;19920;-77
2023/08/25 04:12:52;;;;;;;;;;;;;;;23.64;60.50;99511.53;5074673;28;20007;-78
2023/08/25 04:15:21;;;;;;;;;;;;;;;23.62;61.00;99505.59;5074693;28;19913;-77
2023/08/25 04:17:46;;;;;;;;;;;;;;;23.58;60.69;99496.41;5074688;28;19927;-77
2023/08/25 04:20:11;;;;;;;;;;;;;;;23.57;60.51;99492.09;5056971;28;19912;-77
2023/08/25 04:22:37;;;;;;;;;;;;;;;23.62;60.47;99496.69;5074356;28;19913;-77
2023/08/25 04:25:02;;;;;;;;;;;;;;;23.56;60.28;99493.16;5077120;28;20405;-77
2023/08/25 04:27:28;;;;;;;;;;;;;;;23.57;61.02;99497.47;5080123;28;19959;-77
2023/08/25 04:29:53;;;;;;;;;;;;;;;23.60;61.03;99490.75;5056458;28;19912;-77
2023/08/25 04:32:19;;;;;;;;;;;;;;;23.63;60.73;99496.41;5056249;28;19912;-77
2023/08/25 04:34:44;;;;;;;;;;;;;;;23.65;61.02;99488.88;5074592;28;19912;-78
2023/08/25 04:37:09;;;;;;;;;;;;;;;23.66;61.17;99503.97;5056266;28;19923;-78
2023/08/25 04:39:34;;;;;;;;;;;;;;;23.68;60.73;99509.09;5074174;28;19919;-77
2023/08/25 04:42:00;;;;;;;;;;;;;;;23.71;59.97;99505.88;5074061;28;19913;-78
2023/08/25 04:44:25;;;;;;;;;;;;;;;23.74;60.22;99495.38;5073219;28;19908;-77
2023/08/25 04:46:50;;;;;;;;;;;;;;;23.74;60.50;99510.75;5074131;28;19912;-78
2023/08/25 04:49:15;;;;;;;;;;;;;;;23.72;60.04;99508.31;5056050;28;19917;-79
2023/08/25 04:51:41;;;;;;;;;;;;;;;23.69;60.41;99502.63;5073882;28;19913;-77
2023/08/25 04:54:06;;;;;;;;;;;;;;;23.68;60.49;99503.72;5073816;28;20432;-77
2023/08/25 04:56:31;;;;;;;;;;;;;;;23.69;60.72;99498.06;5073764;28;19995;-77
2023/08/25 04:58:57;;;;;;;;;;;;;;;23.73;60.10;99501.03;5073811;28;20313;-77
2023/08/25 05:01:22;;;;;;;;;;;;;;;23.76;60.31;99492.41;5073675;28;19973;-77
2023/08/25 05:03:48;;;;;;;;;;;;;;;23.82;60.46;99495.97;5073769;28;19917;-77
2023/08/25 05:06:14;;;;;;;;;;;;;;;23.86;59.97;99488.97;5073684;28;19913;-78
2023/08/25 05:08:39;;;;;;;;;;;;;;;23.91;60.39;99489.78;5073755;28;19912;-79
2023/08/25 05:11:04;;;;;;;;;;;;;;;23.92;59.84;99499.50;5073777;28;19913;-78
2023/08/25 05:13:29;;;;;;;;;;;;;;;23.97;60.37;99506.78;5073833;28;20003;-78
2023/08/25 05:15:55;;;;;;;;;;;;;;;23.98;59.43;99511.09;5073380;28;19916;-78
2023/08/25 05:18:20;;;;;;;;;;;;;;;24.00;60.41;99520.56;5073427;28;20304;-77
2023/08/25 05:20:46;;;;;;;;;;;;;;;24.09;59.28;99524.34;5073388;28;19913;-77
2023/08/25 05:23:11;;;;;;;;;;;;;;;24.16;59.88;99526.78;5073300;28;19912;-78
2023/08/25 05:25:37;;;;;;;;;;;;;;;24.26;60.32;99534.88;5073303;28;19912;-77
2023/08/25 05:28:02;;;;;;;;;;;;;;;24.31;59.39;99526.84;5055322;28;20003;-78
2023/08/25 05:30:28;;;;;;;;;;;;;;;24.29;59.75;99526.28;5073232;28;19916;-77
2023/08/25 05:32:53;;;;;;;;;;;;;;;24.30;60.30;99533.31;5073313;28;20389;-78
2023/08/25 05:35:18;;;;;;;;;;;;;;;24.35;59.72;99535.19;5073316;28;19913;-77
2023/08/25 05:37:43;;;;;;;;;;;;;;;24.31;59.68;99536.81;5072965;28;19981;-77
2023/08/25 05:40:09;;;;;;;;;;;;;;;24.35;60.28;99533.31;5085435;28;19913;-77
2023/08/25 05:42:37;;;;;;;;;;;;;;;24.47;59.76;99534.94;5078823;28;20384;-77
2023/08/25 05:45:03;;;;;;;;;;;;;;;24.56;59.43;99544.16;5093149;28;20418;-77
2023/08/25 05:47:28;;;;;;;;;;;;;;;24.65;58.80;99539.81;5091182;28;19966;-77
2023/08/25 05:49:54;;;;;;;;;;;;;;;24.71;59.23;99533.34;5074452;28;19916;-78
2023/08/25 05:52:19;;;;;;;;;;;;;;;24.81;59.05;99527.94;5083216;28;19923;-77
2023/08/25 05:54:44;;;;;;;;;;;;;;;24.92;58.86;99528.72;5092169;28;20336;-77
2023/08/25 05:57:09;;;;;;;;;;;;;;;25.00;58.60;99537.13;5093278;28;19966;-77
2023/08/25 05:59:35;;;;;;;;;;;;;;;25.11;58.60;99532.50;5074730;28;20464;-77
2023/08/25 06:02:00;;;;;;;;;;;;;;;25.18;58.42;99537.63;5093197;28;19916;-77
2023/08/25 06:04:26;;;;;;;;;;;;;;;25.25;58.56;99538.97;5093004;28;19920;-77
2023/08/25 06:06:51;;;;;;;;;;;;;;;25.27;58.28;99536.81;5090567;28;19954;-77
2023/08/25 06:09:17;;;;;;;;;;;;;;;25.31;58.86;99537.09;5079173;28;19916;-77
2023/08/25 06:11:43;;;;;;;;;;;;;;;25.37;58.47;99540.56;5072763;28;19912;-78
2023/08/25 06:14:09;;;;;;;;;;;;;;;25.42;58.12;99538.66;5072095;28;19916;-76
2023/08/25 06:16:36;;;;;;;;;;;;;;;25.54;57.91;99543.75;5092743;28;19939;-78
2023/08/25 06:19:02;;;;;;;;;;;;;;;25.61;58.37;99539.69;5088159;28;19986;-77
2023/08/25 06:21:27;;;;;;;;;;;;;;;25.69;58.08;99549.13;5072807;28;19912;-76
2023/08/25 06:23:52;;;;;;;;;;;;;;;25.77;56.83;99535.03;5079121;28;19935;-77
2023/08/25 06:26:17;;;;;;;;;;;;;;;25.84;56.95;99532.84;5072727;28;19916;-77
2023/08/25 06:28:43;;;;;;;;;;;;;;;25.88;56.75;99528.50;5060072;28;19912;-76
2023/08/25 06:31:08;;;;;;;;;;;;;;;25.96;56.42;99538.72;5075467;28;19917;-77
2023/08/25 06:33:34;;;;;;;;;;;;;;;26.05;56.63;99535.47;5072030;28;19909;-76
2023/08/25 06:35:59;;;;;;;;;;;;;;;26.15;55.80;99532.69;5072114;28;19998;-78
2023/08/25 06:38:24;;;;;;;;;;;;;;;26.18;55.88;99530.22;5072065;28;19916;-76
2023/08/25 06:40:51;;;;;;;;;;;;;;;26.25;55.34;99536.13;5071911;28;20308;-76
2023/08/25 06:43:16;;;;;;;;;;;;;;;26.29;55.41;99539.91;5053737;28;19912;-76
2023/08/25 06:45:41;;;;;;;;;;;;;;;26.36;54.99;99541.50;5071728;28;19919;-78
2023/08/25 06:48:07;;;;;;;;;;;;;;;26.39;54.61;99543.66;5071650;28;19924;-76
2023/08/25 06:50:32;;;;;;;;;;;;;;;26.45;54.21;99554.16;5074963;28;19916;-76
2023/08/25 06:52:57;;;;;;;;;;;;;;;26.49;53.75;99554.41;5070641;28;19916;-77
2023/08/25 06:55:22;;;;;;;;;;;;;;;26.55;54.04;99550.56;5091415;28;19967;-78
2023/08/25 06:57:48;;;;;;;;;;;;;;;26.66;54.17;99546.69;5074188;28;19920;-75
2023/08/25 07:00:14;;;;;;;;;;;;;;;26.76;54.11;99548.53;5061612;28;19920;-76
2023/08/25 07:02:40;;;;;;;;;;;;;;;26.85;54.21;99552.25;5060895;28;19998;-76
2023/08/25 07:05:06;;;;;;;;;;;;;;;26.94;54.03;99549.72;5081073;28;20002;-76
2023/08/25 07:07:31;;;;;;;;;;;;;;;27.01;53.76;99545.63;5080378;28;20302;-77
2023/08/25 07:09:57;;;;;;;;;;;;;;;27.01;53.77;99547.50;5054156;28;19913;-76
2023/08/25 07:12:22;;;;;;;;;;;;;;;27.08;53.37;99545.28;5087235;28;19908;-75
2023/08/25 07:14:48;;;;;;;;;;;;;;;27.12;53.80;99549.84;5079034;28;19966;-77
2023/08/25 07:17:13;;;;;;;;;;;;;;;27.20;53.50;99553.81;5053398;28;19920;-76
2023/08/25 07:19:38;;;;;;;;;;;;;;;27.26;53.32;99557.28;5070812;28;19985;-76
2023/08/25 07:22:03;;;;;;;;;;;;;;;27.30;52.69;99555.63;5090243;28;19939;-77
2023/08/25 07:24:29;;;;;;;;;;;;;;;27.33;53.56;99552.34;5089652;28;19920;-76
2023/08/25 07:26:54;;;;;;;;;;;;;;;27.34;53.39;99543.91;5073089;28;19912;-78
2023/08/25 07:29:19;;;;;;;;;;;;;;;27.38;52.98;99542.22;5091424;28;19962;-77
2023/08/25 07:31:45;;;;;;;;;;;;;;;27.42;53.34;99535.13;5088951;28;20301;-79
2023/08/25 07:34:10;;;;;;;;;;;;;;;27.50;52.55;99534.53;5085035;28;19916;-76
2023/08/25 07:36:35;;;;;;;;;;;;;;;27.57;52.32;99545.03;5087776;28;19927;-77
2023/08/25 07:39:00;;;;;;;;;;;;;;;27.64;52.31;99540.09;5090928;28;20312;-77
2023/08/25 07:41:26;;;;;;;;;;;;;;;27.72;51.90;99538.63;5091687;28;19977;-76
2023/08/25 07:43:51;;;;;;;;;;;;;;;27.81;51.79;99537.69;5091654;28;19919;-77
2023/08/25 07:46:16;;;;;;;;;;;;;;;27.87;51.70;99541.16;5087581;28;19966;-78
2023/08/25 07:48:42;;;;;;;;;;;;;;;27.97;51.57;99541.00;5090843;28;19922;-77
2023/08/25 07:51:07;;;;;;;;;;;;;;;28.03;51.60;99545.25;5090182;28;20346;-78
2023/08/25 07:53:32;;;;;;;;;;;;;;;28.13;51.19;99541.59;5083244;28;19926;-79
2023/08/25 07:55:58;;;;;;;;;;;;;;;28.20;51.16;99538.50;5091093;28;19947;-78
2023/08/25 07:58:24;;;;;;;;;;;;;;;28.30;50.96;99539.22;5091417;28;20382;-78
2023/08/25 08:00:50;;;;;;;;;;;;;;;28.35;50.39;99541.06;5073081;28;20389;-76
2023/08/25 08:03:15;;;;;;;;;;;;;;;28.40;50.25;99539.06;5074981;28;19973;-75
2023/08/25 08:05:40;;;;;;;;;;;;;;;28.47;49.76;99534.06;5082032;28;19923;-78
2023/08/25 08:08:06;;;;;;;;;;;;;;;28.60;49.65;99534.41;5080672;28;19916;-78
2023/08/25 08:10:31;;;;;;;;;;;;;;;28.68;50.10;99533.72;5063727;28;20018;-76
2023/08/25 08:12:57;;;;;;;;;;;;;;;28.79;49.87;99532.44;5091263;28;19912;-77
2023/08/25 08:15:23;;;;;;;;;;;;;;;28.90;49.14;99522.22;5091312;28;19963;-78
2023/08/25 08:17:48;;;;;;;;;;;;;;;28.96;48.43;99518.31;5088637;28;19920;-78
2023/08/25 08:20:13;;;;;;;;;;;;;;;29.07;48.66;99514.31;5078516;28;20328;-76
2023/08/25 08:22:41;;;;;;;;;;;;;;;29.18;47.60;99513.03;5087462;28;19938;-76
2023/08/25 08:25:10;;;;;;;;;;;;;;;29.27;47.52;99510.41;5094082;28;19927;-77
2023/08/25 08:27:36;;;;;;;;;;;;;;;29.39;47.20;99510.72;5092498;28;19981;-76
2023/08/25 08:30:01;;;;;;;;;;;;;;;29.54;46.78;99520.50;5090146;28;19916;-75
2023/08/25 08:32:26;;;;;;;;;;;;;;;29.69;46.49;99512.00;5094553;28;19923;-74
2023/08/25 08:34:52;;;;;;;;;;;;;;;29.84;45.90;99510.91;5092121;28;20305;-75
2023/08/25 08:37:17;;;;;;;;;;;;;;;29.96;44.10;99513.91;5069870;28;19967;-76
2023/08/25 08:39:44;;;;;;;;;;;;;;;30.10;42.52;99522.06;5064651;28;19916;-77
2023/08/25 08:42:12;;;;;;;;;;;;;;;30.20;44.41;99513.66;5078216;28;20030;-77
2023/08/25 08:44:41;;;;;;;;;;;;;;;30.32;42.79;99517.44;5074103;28;19935;-76
2023/08/25 08:47:06;;;;;;;;;;;;;;;30.47;42.88;99505.38;5084073;28;20434;-76
2023/08/25 08:49:33;;;;;;;;;;;;;;;30.62;43.77;99502.31;5088663;28;19920;-75
2023/08/25 08:52:01;;;;;;;;;;;;;;;30.74;42.45;99503.66;5072818;28;19912;-78
2023/08/25 08:54:27;;;;;;;;;;;;;;;30.84;42.87;99501.47;5092093;28;20502;-77
2023/08/25 08:56:53;;;;;;;;;;;;;;;30.99;43.10;99492.06;5087673;28;20002;-77
2023/08/25 08:59:18;;;;;;;;;;;;;;;31.14;42.76;99499.84;5073844;28;19969;-76
2023/08/25 09:01:44;;;;;;;;;;;;;;;31.24;42.88;99502.34;5080485;28;19921;-77
2023/08/25 09:04:09;;;;;;;;;;;;;;;31.40;43.10;99496.44;5090606;28;20012;-77
2023/08/25 09:06:36;;;;;;;;;;;;;;;31.53;42.73;99498.25;5087545;28;19923;-78
2023/08/25 09:09:08;;;;;;;;;;;;;;;31.72;42.89;99500.72;5083709;28;20003;-77
2023/08/25 09:11:34;;;;;;;;;;;;;;;31.88;42.57;99501.84;5086580;28;20415;-76
2023/08/25 09:14:04;;;;;;;;;;;;;;;32.03;41.87;99498.69;5076524;28;19924;-76
2023/08/25 09:16:29;;;;;;;;;;;;;;;32.20;42.53;99487.75;5055406;28;20328;-76
2023/08/25 09:18:55;;;;;;;;;;;;;;;32.35;42.16;99491.13;5079437;28;19949;-77
2023/08/25 09:21:23;;;;;;;;;;;;;;;32.46;41.54;99484.19;5056839;28;19908;-77
2023/08/25 09:23:52;;;;;;;;;;;;;;;32.63;41.24;99494.28;5085947;28;19967;-77
2023/08/25 09:26:18;;;;;;;;;;;;;;;32.63;40.16;99483.34;5093429;28;19951;-77
2023/08/25 09:28:43;;;;;;;;;;;;;;;32.72;40.27;99489.63;5092430;28;19956;-77
2023/08/25 09:31:19;;;;;;;;;;;;;;;32.88;39.67;99479.78;5093219;28;19912;-77
2023/08/25 09:33:44;;;;;;;;;;;;;;;33.07;40.15;99472.00;5091830;28;19919;-76
2023/08/25 09:36:09;;;;;;;;;;;;;;;33.27;40.09;99480.59;5091022;28;20362;-77
2023/08/25 09:38:34;;;;;;;;;;;;;;;33.45;40.65;99476.66;5074295;28;20266;-77
2023/08/25 09:41:00;;;;;;;;;;;;;;;33.49;37.91;99472.13;5073009;28;19936;-76
2023/08/25 09:43:30;;;;;;;;;;;;;;;33.53;39.52;99467.59;5084465;28;20335;-76
2023/08/25 09:45:55;;;;;;;;;;;;;;;33.75;39.36;99463.75;5079755;28;20410;-77
2023/08/25 09:48:21;;;;;;;;;;;;;;;33.85;38.44;99459.81;5093014;28;19912;-77
2023/08/25 09:50:49;;;;;;;;;;;;;;;33.98;39.15;99462.28;5093066;28;19951;-76
2023/08/25 09:53:15;;;;;;;;;;;;;;;34.12;36.90;99453.78;5090983;28;19973;-76
2023/08/25 09:55:40;;;;;;;;;;;;;;;34.21;39.04;99448.25;5092584;28;19913;-76
2023/08/25 09:58:06;;;;;;;;;;;;;;;34.35;38.34;99444.09;5092960;28;19966;-76
2023/08/25 10:00:36;;;;;;;;;;;;;;;34.38;38.05;99443.41;5074438;28;19927;-77
2023/08/25 10:03:03;;;;;;;;;;;;;;;34.49;35.82;99434.75;5092681;28;19912;-74
2023/08/25 10:05:30;;;;;;;;;;;;;;;34.61;37.73;99434.78;5074548;28;19905;-78
2023/08/25 10:07:56;;;;;;;;;;;;;;;34.66;35.55;99432.63;5087379;28;20024;-77
2023/08/25 10:10:21;;;;;;;;;;;;;;;34.72;36.08;99450.47;5072810;28;20382;-78
2023/08/25 10:12:47;;;;;;;;;;;;;;;34.89;34.93;99434.97;5072501;28;20015;-75
2023/08/25 10:15:15;;;;;;;;;;;;;;;34.91;35.19;99427.97;5072445;28;19919;-77
2023/08/25 10:17:42;;;;;;;;;;;;;;;35.09;35.88;99427.78;5072072;28;19923;-77
2023/08/25 10:20:08;;;;;;;;;;;;;;;35.24;35.96;99430.63;5072498;28;19920;-76
2023/08/25 10:22:34;;;;;;;;;;;;;;;35.32;34.92;99426.19;5072083;28;20345;-76
2023/08/25 10:25:01;;;;;;;;;;;;;;;35.45;34.40;99424.22;5072160;28;19913;-77
2023/08/25 10:27:27;;;;;;;;;;;;;;;35.63;34.11;99409.84;5072352;28;19940;-75
2023/08/25 10:29:53;;;;;;;;;;;;;;;35.88;32.89;99413.38;5080232;28;19913;-77
2023/08/25 10:32:18;;;;;;;;;;;;;;;35.81;34.25;99409.63;5063026;28;19913;-78
2023/08/25 10:34:46;;;;;;;;;;;;;;;35.96;34.19;99409.69;5062240;28;19915;-78
2023/08/25 10:37:12;;;;;;;;;;;;;;;36.17;33.82;99409.47;5087972;28;19942;-77
2023/08/25 10:39:44;;;;;;;;;;;;;;;36.44;33.94;99401.56;5083964;28;19922;-77
2023/08/25 10:42:09;;;;;;;;;;;;;;;36.60;32.88;99403.16;5070475;28;19924;-75
2023/08/25 10:44:39;;;;;;;;;;;;;;;36.71;31.69;99400.69;5089994;28;19916;-77
2023/08/25 10:47:05;;;;;;;;;;;;;;;36.73;32.14;99401.13;5056275;28;20024;-77
2023/08/25 10:49:36;;;;;;;;;;;;;;;36.85;32.05;99403.81;5090991;28;19973;-77
2023/08/25 10:52:14;;;;;;;;;;;;;;;37.02;31.27;99402.63;5086916;28;20000;-75
2023/08/25 10:54:40;;;;;;;;;;;;;;;37.19;32.48;99393.22;5071993;28;19912;-77
2023/08/25 10:57:21;;;;;;;;;;;;;;;37.27;31.47;99392.25;5071760;28;19916;-78
2023/08/25 10:59:51;;;;;;;;;;;;;;;37.36;31.76;99392.81;5079070;28;20000;-77
2023/08/25 11:02:35;;;;;;;;;;;;;;;37.39;32.87;99385.81;5077610;28;19917;-76
2023/08/25 11:05:19;;;;;;;;;;;;;;;37.45;32.29;99385.16;5085768;28;20369;-76
2023/08/25 11:07:44;;;;;;;;;;;;;;;37.62;32.53;99385.88;5084331;28;19916;-77
2023/08/25 11:10:13;;;;;;;;;;;;;;;37.78;31.46;99381.91;5077464;28;19920;-76
2023/08/25 11:12:40;;;;;;;;;;;;;;;37.79;32.30;99380.75;5071700;28;19954;-77
2023/08/25 11:15:08;;;;;;;;;;;;;;;37.80;29.45;99378.81;5087657;28;19939;-78
2023/08/25 11:17:34;;;;;;;;;;;;;;;37.80;32.00;99374.09;5064296;28;19920;-76
2023/08/25 11:19:59;;;;;;;;;;;;;;;37.76;30.36;99375.19;5076638;28;19916;-76
2023/08/25 11:22:25;;;;;;;;;;;;;;;37.91;31.23;99368.00;5091802;28;19912;-76
2023/08/25 11:24:50;;;;;;;;;;;;;;;38.01;30.17;99370.16;5078974;28;20396;-77
2023/08/25 11:27:16;;;;;;;;;;;;;;;38.16;30.36;99369.28;5085427;28;19950;-77
2023/08/25 11:29:45;;;;;;;;;;;;;;;38.23;30.12;99361.16;5076820;28;19970;-77
2023/08/25 11:32:14;;;;;;;;;;;;;;;38.31;28.89;99362.88;5090205;28;19923;-76
2023/08/25 11:34:39;;;;;;;;;;;;;;;38.40;28.56;99349.63;5071558;28;20011;-77
2023/08/25 11:37:04;;;;;;;;;;;;;;;38.42;28.09;99352.81;5071269;28;19916;-75
2023/08/25 11:39:30;;;;;;;;;;;;;;;38.54;30.21;99342.75;5069839;28;19936;-77
2023/08/25 11:41:56;;;;;;;;;;;;;;;38.68;29.40;99348.53;5071367;28;19912;-78
2023/08/25 11:44:24;;;;;;;;;;;;;;;38.80;27.57;99347.53;5071296;28;19987;-77
2023/08/25 11:46:53;;;;;;;;;;;;;;;38.86;28.04;99335.00;5071335;28;19912;-76
2023/08/25 11:49:20;;;;;;;;;;;;;;;38.96;27.70;99337.94;5071315;28;19912;-76
2023/08/25 11:51:45;;;;;;;;;;;;;;;39.03;27.19;99328.94;5071199;28;19912;-77
2023/08/25 11:54:11;;;;;;;;;;;;;;;39.08;29.14;99325.88;5074917;28;19916;-77
2023/08/25 11:56:36;;;;;;;;;;;;;;;39.18;28.57;99322.47;5056893;28;19923;-77
2023/08/25 11:59:02;;;;;;;;;;;;;;;39.19;27.59;99318.53;5075026;28;19912;-78
2023/08/25 12:01:35;;;;;;;;;;;;;;;39.18;28.14;99318.91;5079234;28;20316;-77
2023/08/25 12:04:18;;;;;;;;;;;;;;;39.10;29.79;99309.75;5090930;28;19916;-75
2023/08/25 12:06:44;;;;;;;;;;;;;;;39.16;26.97;99311.00;5074676;28;19904;-77
2023/08/25 12:09:09;;;;;;;;;;;;;;;39.08;28.21;99315.63;5074833;28;19912;-78
2023/08/25 12:11:35;;;;;;;;;;;;;;;38.97;27.75;99309.16;5074840;28;19913;-77
2023/08/25 12:14:00;;;;;;;;;;;;;;;38.92;27.91;99298.44;5074715;28;20345;-78
2023/08/25 12:16:26;;;;;;;;;;;;;;;38.90;26.91;99300.78;5056763;28;19917;-77
2023/08/25 12:18:52;;;;;;;;;;;;;;;39.04;27.06;99294.63;5078947;28;19944;-77
2023/08/25 12:21:18;;;;;;;;;;;;;;;39.14;27.64;99296.78;5093176;28;19970;-78
2023/08/25 12:23:44;;;;;;;;;;;;;;;39.18;27.69;99297.63;5094187;28;19916;-76
2023/08/25 12:26:11;;;;;;;;;;;;;;;39.21;26.77;99290.53;5094609;28;20320;-78
2023/08/25 12:28:38;;;;;;;;;;;;;;;39.25;27.82;99297.69;5094618;28;20006;-78
2023/08/25 12:31:03;;;;;;;;;;;;;;;39.28;27.28;99282.34;5094515;28;19919;-77
2023/08/25 12:33:29;;;;;;;;;;;;;;;39.34;26.87;99286.38;5090943;28;20332;-77
2023/08/25 12:35:54;;;;;;;;;;;;;;;39.26;27.43;99279.97;5072644;28;20381;-77
2023/08/25 12:38:20;;;;;;;;;;;;;;;39.22;27.03;99278.31;5090728;28;19916;-77
2023/08/25 12:40:45;;;;;;;;;;;;;;;39.16;27.16;99279.81;5093959;28;20004;-77
2023/08/25 12:43:11;;;;;;;;;;;;;;;39.16;27.90;99279.81;5092468;28;20388;-77